Time;durP1;ratioP1;P1;durP2;ratioP2;P2;SDS_P1;SDS_P2;PMS_P1;PMS_P2;Temp;Humidity;BMP_temperature;BMP_pressure;BME280_temperature;BME280_humidity;BME280_pressure;Samples;Min_cycle;Max_cycle;Signal;HPM_P1;HPM_P2
2023/09/02 00:02:18;;;;;;;6.82;4.03;;;;;;;16.32;100.00;100636.63;5589552;31;34773;-68
2023/09/02 00:05:21;;;;;;;5.82;3.95;;;;;;;16.28;100.00;100638.88;5589942;31;34739;-68
2023/09/02 00:08:24;;;;;;;6.78;3.85;;;;;;;16.26;100.00;100640.94;5589728;31;34569;-68
2023/09/02 00:11:26;;;;;;;6.45;3.67;;;;;;;16.27;100.00;100642.56;5588909;31;34527;-69
2023/09/02 00:14:29;;;;;;;6.22;3.45;;;;;;;16.25;100.00;100643.81;5588714;31;33901;-68
2023/09/02 00:17:35;;;;;;;6.90;3.90;;;;;;;16.20;100.00;100641.72;5589508;31;33874;-69
2023/09/02 00:20:38;;;;;;;6.50;3.87;;;;;;;16.19;100.00;100640.06;5589394;31;34463;-68
2023/09/02 00:23:45;;;;;;;8.77;3.97;;;;;;;16.19;100.00;100636.56;5589403;31;34863;-69
2023/09/02 00:26:48;;;;;;;5.97;4.12;;;;;;;16.19;100.00;100640.06;5589359;31;33920;-68
2023/09/02 00:29:51;;;;;;;6.75;3.90;;;;;;;16.16;100.00;100636.97;5589482;31;33053;-69
2023/09/02 00:32:54;;;;;;;5.05;3.60;;;;;;;16.14;100.00;100639.00;5589282;31;33910;-69
2023/09/02 00:35:57;;;;;;;6.40;3.95;;;;;;;16.15;100.00;100643.34;5589065;31;34036;-68
2023/09/02 00:39:00;;;;;;;6.35;4.00;;;;;;;16.20;100.00;100643.56;5589231;31;34027;-69
2023/09/02 00:42:06;;;;;;;6.03;3.87;;;;;;;16.23;100.00;100638.66;5588374;31;33850;-68
2023/09/02 00:45:09;;;;;;;4.70;3.72;;;;;;;16.26;100.00;100637.44;5589041;31;34019;-68
2023/09/02 00:48:13;;;;;;;6.47;3.90;;;;;;;16.29;100.00;100632.50;5589186;31;32561;-68
2023/09/02 00:51:15;;;;;;;6.35;3.90;;;;;;;16.35;100.00;100633.56;5588141;31;33835;-69
2023/09/02 00:54:18;;;;;;;9.57;3.67;;;;;;;16.35;100.00;100630.88;5588938;31;34531;-68
2023/09/02 00:57:21;;;;;;;5.78;3.80;;;;;;;16.36;100.00;100629.87;5588971;31;34602;-68
2023/09/02 01:00:24;;;;;;;5.72;3.70;;;;;;;16.34;100.00;100638.09;5588875;31;33931;-68
2023/09/02 01:03:27;;;;;;;8.07;3.83;;;;;;;16.33;100.00;100638.28;5588141;31;34449;-69
2023/09/02 01:06:31;;;;;;;5.22;3.75;;;;;;;16.28;100.00;100636.22;5587879;31;34082;-68
2023/09/02 01:09:34;;;;;;;7.93;4.07;;;;;;;16.31;100.00;100646.53;5588752;31;33966;-68
2023/09/02 01:12:37;;;;;;;5.78;3.87;;;;;;;16.32;100.00;100645.47;5588698;31;34465;-69
2023/09/02 01:15:39;;;;;;;5.40;4.05;;;;;;;16.24;100.00;100639.47;5588616;31;34920;-68
2023/09/02 01:18:42;;;;;;;7.62;3.87;;;;;;;16.20;100.00;100648.94;5587783;31;34574;-68
2023/09/02 01:22:16;;;;;;;8.00;3.78;;;;;;;16.16;100.00;100645.00;5588572;31;34026;-69
2023/09/02 01:25:58;;;;;;;5.53;3.95;;;;;;;16.12;100.00;100651.78;5588419;31;33805;-68
2023/09/02 01:29:07;;;;;;;5.85;3.97;;;;;;;16.11;100.00;100658.16;5588303;31;34541;-69
2023/09/02 01:32:13;;;;;;;4.22;3.45;;;;;;;16.15;100.00;100654.06;5588189;31;34513;-69
2023/09/02 01:35:19;;;;;;;5.80;3.67;;;;;;;16.11;100.00;100653.63;5588290;31;33589;-68
2023/09/02 01:38:26;;;;;;;6.68;3.80;;;;;;;16.05;100.00;100652.56;5588137;31;34799;-68
2023/09/02 01:41:31;;;;;;;6.05;3.90;;;;;;;16.01;100.00;100653.16;5588047;31;33862;-69
2023/09/02 01:44:34;;;;;;;6.65;3.90;;;;;;;15.99;100.00;100660.53;5587644;31;33925;-69
2023/09/02 01:47:38;;;;;;;8.43;3.75;;;;;;;15.95;100.00;100656.59;5588146;31;33828;-68
2023/09/02 01:50:43;;;;;;;6.35;3.78;;;;;;;15.88;100.00;100656.53;5588214;31;34167;-69
2023/09/02 01:53:46;;;;;;;7.60;3.83;;;;;;;15.83;100.00;100656.31;5589969;31;33950;-69
2023/09/02 01:56:49;;;;;;;7.00;3.97;;;;;;;15.76;100.00;100654.63;5590726;31;33874;-69
2023/09/02 01:59:52;;;;;;;6.32;3.47;;;;;;;15.74;100.00;100659.31;5590254;31;33735;-68
2023/09/02 02:02:55;;;;;;;5.03;3.90;;;;;;;15.74;100.00;100660.16;5590673;31;34455;-69
2023/09/02 02:06:00;;;;;;;4.82;3.45;;;;;;;15.78;100.00;100657.94;5590652;31;34028;-68
2023/09/02 02:09:05;;;;;;;8.80;3.97;;;;;;;15.70;100.00;100669.59;5589733;31;34687;-68
2023/09/02 02:12:08;;;;;;;5.05;3.58;;;;;;;15.67;100.00;100661.97;5589754;31;33854;-69
2023/09/02 02:15:11;;;;;;;4.80;3.58;;;;;;;15.67;100.00;100672.66;5589847;31;34075;-68
2023/09/02 02:18:14;;;;;;;6.03;3.80;;;;;;;15.67;100.00;100655.78;5589760;31;34685;-69
2023/09/02 02:21:18;;;;;;;7.03;3.90;;;;;;;15.64;100.00;100659.66;5589818;31;33858;-68
2023/09/02 02:24:20;;;;;;;4.03;3.62;;;;;;;15.56;100.00;100657.13;5590462;31;34592;-69
2023/09/02 02:27:23;;;;;;;11.05;3.47;;;;;;;15.52;100.00;100656.69;5590431;31;33877;-69
2023/09/02 02:30:26;;;;;;;4.93;3.72;;;;;;;15.47;100.00;100653.75;5590461;31;33798;-69
2023/09/02 02:33:29;;;;;;;6.25;3.75;;;;;;;15.45;100.00;100653.09;5589600;31;33848;-69
2023/09/02 02:36:31;;;;;;;5.40;4.15;;;;;;;15.42;100.00;100658.00;5590410;31;33916;-68
2023/09/02 02:39:34;;;;;;;5.68;4.30;;;;;;;15.42;100.00;100655.34;5590134;31;34112;-68
2023/09/02 02:42:37;;;;;;;5.60;4.00;;;;;;;15.42;100.00;100661.50;5589547;31;34422;-69
2023/09/02 02:45:43;;;;;;;6.43;4.10;;;;;;;15.47;100.00;100656.41;5590168;31;33881;-69
2023/09/02 02:48:46;;;;;;;7.10;4.00;;;;;;;15.53;100.00;100658.38;5590692;31;35281;-68
2023/09/02 02:51:50;;;;;;;5.10;3.70;;;;;;;15.45;100.00;100660.28;5589288;31;33895;-69
2023/09/02 02:54:54;;;;;;;5.43;3.70;;;;;;;15.38;100.00;100659.41;5589560;31;34202;-69
2023/09/02 02:57:57;;;;;;;6.97;4.35;;;;;;;15.36;100.00;100658.78;5590135;31;34547;-69
2023/09/02 03:01:07;;;;;;;5.87;4.00;;;;;;;15.29;100.00;100656.06;5590188;31;34076;-68
2023/09/02 03:04:12;;;;;;;10.43;4.00;;;;;;;15.25;100.00;100656.63;5589800;31;33823;-68
2023/09/02 03:07:15;;;;;;;6.78;3.78;;;;;;;15.26;100.00;100660.94;5589318;31;33974;-69
2023/09/02 03:10:18;;;;;;;5.22;3.97;;;;;;;15.22;100.00;100661.31;5589961;31;34119;-69
2023/09/02 03:13:23;;;;;;;5.05;3.87;;;;;;;15.28;100.00;100662.41;5589882;31;34561;-69
2023/09/02 03:16:26;;;;;;;8.63;4.07;;;;;;;15.37;100.00;100661.25;5590428;31;34554;-69
2023/09/02 03:19:29;;;;;;;6.05;3.90;;;;;;;15.31;100.00;100667.37;5590042;31;33983;-68
2023/09/02 03:22:33;;;;;;;6.32;3.80;;;;;;;15.23;100.00;100664.84;5589161;31;34541;-69
2023/09/02 03:25:37;;;;;;;7.15;4.37;;;;;;;15.20;100.00;100666.03;5590298;31;34846;-69
2023/09/02 03:28:41;;;;;;;6.93;4.03;;;;;;;15.16;100.00;100663.94;5590010;31;33795;-69
2023/09/02 03:31:44;;;;;;;5.93;3.70;;;;;;;15.15;100.00;100667.66;5589917;31;34523;-69
2023/09/02 03:34:48;;;;;;;6.18;4.10;;;;;;;15.13;100.00;100672.34;5589911;31;33916;-68
2023/09/02 03:37:51;;;;;;;6.97;4.32;;;;;;;15.11;100.00;100669.00;5590174;31;33983;-69
2023/09/02 03:40:54;;;;;;;5.90;4.40;;;;;;;15.11;100.00;100667.16;5589668;31;34170;-69
2023/09/02 03:43:57;;;;;;;5.40;3.83;;;;;;;15.12;100.00;100670.69;5589715;31;33829;-69
2023/09/02 03:47:00;;;;;;;6.43;3.95;;;;;;;15.18;100.00;100677.94;5589781;31;33638;-69
2023/09/02 03:50:04;;;;;;;6.20;4.15;;;;;;;15.36;100.00;100670.28;5589627;31;33935;-69
2023/09/02 03:53:07;;;;;;;4.57;3.65;;;;;;;15.45;100.00;100666.47;5589640;31;34484;-69
2023/09/02 03:56:10;;;;;;;4.95;3.65;;;;;;;15.49;100.00;100665.06;5589685;31;33900;-68
2023/09/02 03:59:14;;;;;;;7.60;3.62;;;;;;;15.39;100.00;100661.91;5588904;31;34546;-69
2023/09/02 04:02:17;;;;;;;5.35;3.47;;;;;;;15.37;100.00;100661.25;5589644;31;33865;-68
2023/09/02 04:05:20;;;;;;;5.03;3.70;;;;;;;15.43;100.00;100665.84;5589043;31;33768;-69
2023/09/02 04:08:26;;;;;;;5.57;3.92;;;;;;;15.42;100.00;100669.53;5589901;31;33845;-69
2023/09/02 04:11:30;;;;;;;5.05;4.00;;;;;;;15.36;100.00;100672.97;5589647;31;34077;-69
2023/09/02 04:14:32;;;;;;;5.60;3.70;;;;;;;15.31;100.00;100672.72;5587644;31;33885;-69
2023/09/02 04:17:35;;;;;;;5.93;4.05;;;;;;;15.26;100.00;100683.16;5589387;31;34619;-69
2023/09/02 04:20:38;;;;;;;7.65;4.00;;;;;;;15.25;100.00;100678.00;5588820;31;34105;-69
2023/09/02 04:23:41;;;;;;;4.87;3.92;;;;;;;15.23;100.00;100686.22;5589700;31;33790;-69
2023/09/02 04:26:45;;;;;;;7.80;3.97;;;;;;;15.29;100.00;100687.31;5589435;31;33931;-69
2023/09/02 04:29:49;;;;;;;7.65;3.67;;;;;;;15.38;100.00;100692.34;5589306;31;35312;-69
2023/09/02 04:32:52;;;;;;;8.10;4.12;;;;;;;15.46;100.00;100700.22;5589231;31;33792;-69
2023/09/02 04:35:55;;;;;;;5.53;4.00;;;;;;;15.44;100.00;100694.22;5589518;31;33906;-69
2023/09/02 04:38:58;;;;;;;7.68;3.65;;;;;;;15.42;100.00;100701.63;5589198;31;33786;-69
2023/09/02 04:42:01;;;;;;;6.60;4.00;;;;;;;15.48;100.00;100706.22;5589291;31;34326;-68
2023/09/02 04:45:04;;;;;;;7.00;4.40;;;;;;;15.59;100.00;100702.19;5588852;31;33858;-69
2023/09/02 04:48:09;;;;;;;14.68;4.50;;;;;;;15.66;100.00;100703.09;5588282;31;35329;-69
2023/09/02 04:51:12;;;;;;;8.18;3.72;;;;;;;15.75;100.00;100701.09;5587911;31;33970;-69
2023/09/02 04:54:15;;;;;;;9.63;4.18;;;;;;;15.91;100.00;100703.50;5588994;31;34016;-69
2023/09/02 04:57:17;;;;;;;5.35;4.03;;;;;;;15.89;100.00;100702.88;5588580;31;33955;-69
2023/09/02 05:00:28;;;;;;;5.95;4.10;;;;;;;15.93;100.00;100704.94;5588989;31;33860;-69
2023/09/02 05:03:31;;;;;;;5.97;4.05;;;;;;;15.99;100.00;100692.66;5588769;31;33800;-69
2023/09/02 05:06:34;;;;;;;6.65;4.35;;;;;;;16.02;100.00;100695.75;5588835;31;33796;-69
2023/09/02 05:09:38;;;;;;;5.25;4.30;;;;;;;16.04;100.00;100703.59;5587916;31;33137;-69
2023/09/02 05:12:41;;;;;;;6.75;4.28;;;;;;;16.13;100.00;100704.25;5587395;31;34021;-69
2023/09/02 05:15:44;;;;;;;8.77;4.40;;;;;;;16.24;100.00;100709.91;5588923;31;34488;-69
2023/09/02 05:18:49;;;;;;;7.28;4.43;;;;;;;16.39;100.00;100705.28;5588929;31;34076;-69
2023/09/02 05:21:52;;;;;;;8.40;4.65;;;;;;;16.50;100.00;100703.88;5588007;31;33976;-69
2023/09/02 05:24:55;;;;;;;7.65;4.53;;;;;;;16.56;100.00;100705.75;5588852;31;34443;-69
2023/09/02 05:27:58;;;;;;;9.18;4.93;;;;;;;16.83;100.00;100706.75;5590268;31;33821;-69
2023/09/02 05:31:01;;;;;;;8.18;4.60;;;;;;;16.84;100.00;100713.75;5590892;31;34792;-69
2023/09/02 05:34:03;;;;;;;5.95;4.53;;;;;;;16.90;100.00;100713.75;5590746;31;34526;-69
2023/09/02 05:37:06;;;;;;;7.87;4.60;;;;;;;16.95;100.00;100715.84;5591153;31;33904;-69
2023/09/02 05:40:10;;;;;;;10.45;5.28;;;;;;;17.01;100.00;100709.69;5590752;31;35383;-69
2023/09/02 05:43:13;;;;;;;7.12;4.57;;;;;;;17.09;100.00;100714.06;5589760;31;34251;-69
2023/09/02 05:46:16;;;;;;;7.43;5.07;;;;;;;17.30;100.00;100713.88;5589931;31;34019;-69
2023/09/02 05:49:19;;;;;;;6.65;5.03;;;;;;;17.30;100.00;100705.84;5591225;31;33782;-68
2023/09/02 05:52:21;;;;;;;8.43;6.82;;;;;;;17.40;100.00;100711.63;5589929;31;33940;-69
2023/09/02 05:55:24;;;;;;;9.38;5.75;;;;;;;17.51;100.00;100712.91;5590593;31;33898;-69
2023/09/02 05:58:27;;;;;;;8.60;5.45;;;;;;;17.68;100.00;100701.56;5590793;31;34509;-69
2023/09/02 06:01:30;;;;;;;7.55;5.53;;;;;;;17.80;100.00;100710.69;5590597;31;33845;-69
2023/09/02 06:04:33;;;;;;;7.82;5.60;;;;;;;18.04;100.00;100719.94;5590554;31;33846;-69
2023/09/02 06:07:36;;;;;;;9.45;5.93;;;;;;;18.19;100.00;100708.97;5590297;31;34630;-69
2023/09/02 06:10:39;;;;;;;13.23;5.97;;;;;;;18.33;100.00;100720.53;5590694;31;34031;-69
2023/09/02 06:13:42;;;;;;;10.38;6.20;;;;;;;18.40;100.00;100711.41;5590341;31;34126;-69
2023/09/02 06:16:45;;;;;;;10.90;6.30;;;;;;;18.53;100.00;100715.94;5590681;31;33883;-69
2023/09/02 06:19:47;;;;;;;10.40;6.30;;;;;;;18.61;100.00;100726.47;5589830;31;33836;-69
2023/09/02 06:22:50;;;;;;;8.13;6.82;;;;;;;18.81;100.00;100727.22;5590328;31;33862;-68
2023/09/02 06:25:57;;;;;;;10.13;6.50;;;;;;;18.85;100.00;100720.38;5590702;31;34558;-69
2023/09/02 06:28:59;;;;;;;9.10;6.28;;;;;;;18.98;100.00;100716.78;5590411;31;34012;-69
2023/09/02 06:32:04;;;;;;;11.10;6.70;;;;;;;19.21;100.00;100727.88;5589837;31;34469;-69
2023/09/02 06:35:11;;;;;;;8.70;6.60;;;;;;;19.40;100.00;100726.09;5589505;31;33861;-70
2023/09/02 06:38:14;;;;;;;8.52;6.62;;;;;;;19.59;100.00;100738.63;5589409;31;34423;-69
2023/09/02 06:41:17;;;;;;;11.80;6.28;;;;;;;19.81;100.00;100737.19;5590181;31;33888;-69
2023/09/02 06:44:20;;;;;;;9.70;6.68;;;;;;;20.43;100.00;100740.78;5590160;31;34005;-70
2023/09/02 06:47:23;;;;;;;9.48;5.95;;;;;;;21.30;100.00;100738.75;5589976;31;33820;-70
2023/09/02 06:50:27;;;;;;;8.10;5.32;;;;;;;22.12;100.00;100746.00;5590390;31;34136;-70
2023/09/02 06:53:30;;;;;;;7.47;5.20;;;;;;;22.85;100.00;100742.78;5589395;31;33780;-70
2023/09/02 06:56:33;;;;;;;7.53;5.10;;;;;;;23.77;100.00;100748.81;5590057;31;33971;-70
2023/09/02 06:59:35;;;;;;;7.32;5.45;;;;;;;24.27;100.00;100743.44;5589548;31;35470;-70
2023/09/02 07:02:39;;;;;;;9.90;5.70;;;;;;;23.89;99.57;100755.00;5589963;31;33832;-71
2023/09/02 07:05:42;;;;;;;9.60;5.68;;;;;;;23.70;100.00;100751.72;5589956;31;33773;-70
2023/09/02 07:08:45;;;;;;;11.82;5.80;;;;;;;25.15;88.33;100761.44;5589963;31;34821;-71
2023/09/02 07:11:49;;;;;;;8.77;5.75;;;;;;;26.04;77.74;100767.22;5589903;31;33933;-70
2023/09/02 07:14:51;;;;;;;6.95;5.68;;;;;;;26.09;73.81;100759.09;5589746;31;35101;-70
2023/09/02 07:17:54;;;;;;;11.93;5.30;;;;;;;26.61;70.11;100759.19;5589962;31;33848;-70
2023/09/02 07:21:01;;;;;;;9.98;5.82;;;;;;;25.64;77.60;100762.25;5589370;31;33803;-71
2023/09/02 07:24:09;;;;;;;5.97;4.85;;;;;;;26.54;72.38;100757.75;5589650;31;34514;-71
2023/09/02 07:27:12;;;;;;;11.65;5.60;;;;;;;27.21;65.73;100766.78;5589843;31;33788;-71
2023/09/02 07:30:15;;;;;;;7.30;5.32;;;;;;;26.73;67.85;100757.03;5589645;31;33784;-71
2023/09/02 07:33:18;;;;;;;7.18;4.93;;;;;;;26.53;67.40;100758.87;5588781;31;35170;-71
2023/09/02 07:36:21;;;;;;;11.93;5.35;;;;;;;27.66;66.26;100752.47;5589630;31;34490;-71
2023/09/02 07:39:24;;;;;;;10.00;4.75;;;;;;;28.59;59.00;100756.75;5589808;31;33888;-71
2023/09/02 07:42:26;;;;;;;7.65;4.55;;;;;;;29.42;54.39;100763.25;5589731;31;34207;-71
2023/09/02 07:45:29;;;;;;;7.53;4.68;;;;;;;30.14;51.54;100770.62;5584121;31;142740;-72
2023/09/02 07:48:32;;;;;;;10.50;4.32;;;;;;;30.36;49.43;100763.84;5589302;31;34586;-71
2023/09/02 07:51:35;;;;;;;7.68;4.28;;;;;;;30.35;49.28;100762.22;5589213;31;33778;-71
2023/09/02 07:54:38;;;;;;;9.07;4.57;;;;;;;30.76;47.67;100766.16;5589086;31;33843;-71
2023/09/02 07:57:40;;;;;;;7.25;4.03;;;;;;;29.17;51.42;100771.56;5588695;31;33866;-73
2023/09/02 08:00:43;;;;;;;7.07;3.90;;;;;;;30.31;46.93;100761.97;5589365;31;33903;-71
2023/09/02 08:03:46;;;;;;;6.68;3.08;;;;;;;30.60;46.49;100762.78;5589522;31;33959;-71
2023/09/02 08:06:49;;;;;;;7.47;3.03;;;;;;;30.65;46.75;100762.72;5589485;31;34836;-71
2023/09/02 08:09:52;;;;;;;12.70;3.33;;;;;;;32.07;44.32;100765.38;5589480;31;34504;-72
2023/09/02 08:12:54;;;;;;;5.60;2.50;;;;;;;31.46;44.56;100764.44;5589413;31;34165;-70
2023/09/02 08:15:58;;;;;;;8.77;3.10;;;;;;;32.16;42.94;100774.56;5588799;31;34092;-71
2023/09/02 08:19:01;;;;;;;4.53;2.53;;;;;;;33.09;42.75;100768.63;5588895;31;33822;-73
2023/09/02 08:22:04;;;;;;;5.43;2.80;;;;;;;33.62;38.86;100762.47;5588948;31;33831;-71
2023/09/02 08:25:07;;;;;;;3.67;2.70;;;;;;;33.34;39.84;100767.28;5588783;31;34045;-69
2023/09/02 08:28:10;;;;;;;6.22;2.78;;;;;;;33.08;38.82;100761.50;5587658;31;34241;-70
2023/09/02 08:31:18;;;;;;;8.02;2.90;;;;;;;32.00;41.08;100767.72;5589201;31;34552;-71
2023/09/02 08:34:22;;;;;;;6.00;2.75;;;;;;;32.95;39.54;100773.34;5588945;31;33894;-74
2023/09/02 08:37:25;;;;;;;3.97;2.60;;;;;;;32.44;41.29;100775.41;5588163;31;33915;-72
2023/09/02 08:40:28;;;;;;;3.97;2.42;;;;;;;31.91;42.46;100762.06;5589065;31;34010;-72
2023/09/02 08:43:31;;;;;;;4.57;2.80;;;;;;;31.54;45.50;100767.59;5588668;31;34594;-72
2023/09/02 08:46:39;;;;;;;6.12;3.15;;;;;;;31.75;42.90;100766.19;5588340;31;34661;-72
2023/09/02 08:49:42;;;;;;;3.33;2.17;;;;;;;31.79;44.89;100762.56;5588493;31;34003;-72
2023/09/02 08:52:45;;;;;;;6.60;2.40;;;;;;;33.50;39.60;100765.00;5588284;31;34677;-71
2023/09/02 08:55:49;;;;;;;3.40;2.30;;;;;;;31.43;44.33;100766.91;5588056;31;34580;-71
2023/09/02 08:58:53;;;;;;;4.68;2.22;;;;;;;33.29;40.16;100777.56;5588753;31;34095;-73
2023/09/02 09:01:56;;;;;;;5.45;1.98;;;;;;;32.75;40.69;100771.00;5587698;31;33970;-72
2023/09/02 09:05:02;;;;;;;6.78;2.40;;;;;;;33.22;40.36;100766.16;5588489;31;34918;-72
2023/09/02 09:08:06;;;;;;;4.57;2.22;;;;;;;31.70;42.47;100763.53;5588268;31;33888;-71
2023/09/02 09:11:11;;;;;;;3.87;2.15;;;;;;;30.24;47.03;100766.97;5588152;31;34451;-69
2023/09/02 09:14:21;;;;;;;3.67;2.00;;;;;;;29.07;48.51;100772.44;5587795;31;33856;-73
2023/09/02 09:17:25;;;;;;;6.30;2.20;;;;;;;28.26;52.86;100763.66;5587703;31;34877;-71
2023/09/02 09:20:28;;;;;;;12.75;2.47;;;;;;;27.79;55.74;100759.28;5587835;31;33942;-71
2023/09/02 09:23:32;;;;;;;6.10;2.10;;;;;;;27.40;57.76;100752.69;5587545;31;34073;-71
2023/09/02 09:26:35;;;;;;;5.07;1.80;;;;;;;27.35;59.31;100753.50;5587950;31;33800;-69
2023/09/02 09:29:40;;;;;;;3.92;1.92;;;;;;;27.07;58.79;100757.47;5587916;31;33812;-71
2023/09/02 09:32:57;;;;;;;5.25;2.00;;;;;;;26.59;61.46;100760.50;5587662;31;33769;-71
2023/09/02 09:36:10;;;;;;;7.32;2.10;;;;;;;26.54;64.81;100752.31;5587401;31;34876;-70
2023/09/02 09:39:13;;;;;;;4.97;1.73;;;;;;;26.50;64.24;100753.94;5587379;31;34754;-71
2023/09/02 09:42:17;;;;;;;5.85;2.08;;;;;;;26.52;67.73;100762.66;5586814;31;34898;-70
2023/09/02 09:45:20;;;;;;;3.75;1.90;;;;;;;26.61;66.58;100766.53;5587060;31;33927;-70
2023/09/02 09:48:23;;;;;;;5.87;2.30;;;;;;;26.26;67.05;100765.22;5586970;31;34704;-70
2023/09/02 09:51:25;;;;;;;8.98;2.33;;;;;;;26.16;71.66;100767.00;5586902;31;33929;-70
2023/09/02 09:54:40;;;;;;;8.63;2.20;;;;;;;26.19;70.72;100756.41;5587516;31;34049;-70
2023/09/02 09:57:42;;;;;;;6.47;2.20;;;;;;;26.26;71.00;100764.41;5587693;31;33829;-69
2023/09/02 10:00:51;;;;;;;4.18;2.17;;;;;;;26.31;69.54;100754.38;5587659;31;34866;-71
2023/09/02 10:03:55;;;;;;;5.10;2.33;;;;;;;26.53;70.40;100759.66;5587565;31;33854;-69
2023/09/02 10:07:02;;;;;;;2.92;1.90;;;;;;;26.75;67.83;100762.22;5587960;31;33986;-70
2023/09/02 10:10:05;;;;;;;4.80;2.00;;;;;;;26.80;66.66;100751.38;5586717;31;33895;-69
2023/09/02 10:13:08;;;;;;;5.30;2.05;;;;;;;27.03;65.17;100748.22;5588881;31;33781;-69
2023/09/02 10:16:11;;;;;;;8.15;2.37;;;;;;;26.85;66.63;100745.13;5589751;31;34510;-69
2023/09/02 10:19:15;;;;;;;3.12;1.90;;;;;;;27.10;65.27;100746.06;5590048;31;33993;-68
2023/09/02 10:22:21;;;;;;;8.75;2.12;;;;;;;27.20;64.93;100745.28;5589084;31;34823;-69
2023/09/02 10:25:29;;;;;;;4.87;1.85;;;;;;;27.33;64.00;100741.22;5589261;31;34463;-69
2023/09/02 10:28:39;;;;;;;6.85;2.28;;;;;;;27.68;62.78;100754.94;5590312;31;34456;-71
2023/09/02 10:31:51;;;;;;;5.97;2.47;;;;;;;27.64;62.87;100745.66;5590109;31;33880;-69
2023/09/02 10:35:09;;;;;;;9.02;2.30;;;;;;;28.12;61.27;100743.50;5589916;31;33796;-72
2023/09/02 10:38:17;;;;;;;3.35;1.75;;;;;;;28.15;60.76;100743.75;5590178;31;34031;-72
2023/09/02 10:41:23;;;;;;;3.78;1.60;;;;;;;27.92;61.42;100734.19;5589255;31;32905;-72
2023/09/02 10:44:27;;;;;;;5.62;1.70;;;;;;;28.29;59.56;100741.25;5589704;31;33855;-72
2023/09/02 10:47:30;;;;;;;6.07;2.00;;;;;;;28.37;60.07;100743.44;5590168;31;33849;-70
2023/09/02 10:50:33;;;;;;;3.70;1.80;;;;;;;28.75;56.97;100737.34;5588624;31;34204;-69
2023/09/02 10:53:52;;;;;;;3.72;1.30;;;;;;;29.39;53.43;100741.13;5589305;31;34490;-72
2023/09/02 10:57:11;;;;;;;2.70;1.50;;;;;;;29.88;50.32;100752.75;5589639;31;32285;-69
2023/09/02 11:00:20;;;;;;;3.80;1.52;;;;;;;28.60;53.68;100740.09;5589574;31;33838;-70
2023/09/02 11:03:46;;;;;;;3.62;1.40;;;;;;;28.95;54.73;100737.22;5589571;31;33867;-71
2023/09/02 11:07:19;;;;;;;3.22;1.27;;;;;;;29.20;52.19;100730.81;5589934;31;34001;-69
2023/09/02 11:10:52;;;;;;;6.57;1.40;;;;;;;30.63;47.80;100736.75;5589567;31;34932;-71
2023/09/02 11:14:08;;;;;;;4.35;1.10;;;;;;;32.93;42.25;100737.09;5589630;31;34564;-71
2023/09/02 11:17:31;;;;;;;2.50;1.15;;;;;;;33.95;38.70;100755.63;5589920;31;33796;-71
2023/09/02 11:20:48;;;;;;;2.72;1.30;;;;;;;32.60;41.57;100743.81;5590288;31;33866;-72
2023/09/02 11:23:52;;;;;;;2.85;1.40;;;;;;;35.89;36.68;100743.31;5589312;31;34078;-71
2023/09/02 11:27:00;;;;;;;2.67;1.20;;;;;;;37.79;32.66;100755.78;5589924;31;35376;-71
2023/09/02 11:30:10;;;;;;;4.57;1.50;;;;;;;39.40;29.60;100759.94;5589984;31;33887;-70
2023/09/02 11:33:17;;;;;;;3.83;1.60;;;;;;;40.76;27.82;100750.13;5590070;31;33940;-71
2023/09/02 11:36:21;;;;;;;5.72;1.70;;;;;;;40.34;28.05;100747.06;5589918;31;34660;-70
2023/09/02 11:39:27;;;;;;;4.37;1.50;;;;;;;38.80;29.85;100746.94;5589748;31;33948;-70
2023/09/02 11:42:30;;;;;;;5.03;1.60;;;;;;;39.77;28.64;100749.50;5589429;31;33794;-71
2023/09/02 11:45:35;;;;;;;1.95;1.33;;;;;;;39.43;29.16;100739.78;5589409;31;33769;-73
2023/09/02 11:48:38;;;;;;;2.37;1.23;;;;;;;41.01;26.44;100742.31;5589670;31;34491;-70
2023/09/02 11:51:41;;;;;;;3.80;1.37;;;;;;;38.38;28.70;100743.56;5589633;31;33908;-70
2023/09/02 11:54:46;;;;;;;2.90;1.12;;;;;;;37.84;29.53;100754.75;5588802;31;34125;-69
2023/09/02 11:57:50;;;;;;;3.58;1.37;;;;;;;38.35;28.68;100736.75;5588938;31;33826;-71
2023/09/02 12:00:53;;;;;;;4.53;1.30;;;;;;;37.28;30.35;100740.41;5589483;31;33799;-71
2023/09/02 12:03:57;;;;;;;1.23;1.00;;;;;;;37.27;31.32;100738.00;5589471;31;34928;-71
2023/09/02 12:07:00;;;;;;;1.83;1.20;;;;;;;38.10;29.68;100737.88;5589529;31;34562;-72
2023/09/02 12:10:07;;;;;;;2.17;1.40;;;;;;;40.53;26.82;100745.50;5588891;31;34019;-73
2023/09/02 12:13:10;;;;;;;14.48;11.30;;;;;;;40.11;26.91;100731.34;5589453;31;33852;-72
2023/09/02 12:16:16;;;;;;;2.55;1.33;;;;;;;41.86;25.14;100744.12;5575673;31;33828;-68
2023/09/02 12:19:22;;;;;;;1.62;1.15;;;;;;;42.26;24.46;100740.88;5588892;31;33810;-72
2023/09/02 12:22:25;;;;;;;2.50;1.10;;;;;;;38.04;28.33;100734.53;5589674;31;33969;-70
2023/09/02 12:25:29;;;;;;;3.17;1.27;;;;;;;39.42;27.12;100724.28;5589374;31;34063;-71
2023/09/02 12:28:32;;;;;;;1.42;0.98;;;;;;;39.42;27.68;100733.41;5589500;31;33811;-71
2023/09/02 12:31:35;;;;;;;3.08;1.20;;;;;;;41.17;25.54;100739.50;5589449;31;33931;-71
2023/09/02 12:34:38;;;;;;;2.47;1.27;;;;;;;42.35;24.56;100738.66;5589074;31;33906;-70
2023/09/02 12:37:41;;;;;;;2.37;1.30;;;;;;;40.95;25.51;100729.88;5588077;31;33754;-70
2023/09/02 12:40:55;;;;;;;4.35;1.30;;;;;;;42.51;23.77;100730.09;5588607;31;33805;-71
2023/09/02 12:44:11;;;;;;;2.55;1.15;;;;;;;41.70;24.31;100717.50;5589157;31;34596;-71
2023/09/02 12:47:22;;;;;;;3.17;1.30;;;;;;;41.05;25.88;100720.16;5588532;31;33786;-71
2023/09/02 12:50:26;;;;;;;2.67;1.37;;;;;;;41.23;25.38;100722.16;5588990;31;33820;-72
2023/09/02 12:53:29;;;;;;;2.08;1.10;;;;;;;43.55;24.24;100717.22;5588101;31;33989;-70
2023/09/02 12:56:32;;;;;;;2.03;1.08;;;;;;;44.82;21.66;100711.16;5588568;31;33980;-70
2023/09/02 12:59:35;;;;;;;3.10;1.20;;;;;;;42.79;23.14;100722.22;5588993;31;34419;-71
2023/09/02 13:02:38;;;;;;;2.20;1.15;;;;;;;42.39;24.05;100708.81;5588586;31;33846;-70
2023/09/02 13:05:41;;;;;;;1.95;1.00;;;;;;;42.38;23.68;100704.41;5589146;31;34495;-71
2023/09/02 13:08:43;;;;;;;5.93;1.37;;;;;;;37.75;29.88;100693.91;5588796;31;33848;-72
2023/09/02 13:11:47;;;;;;;1.45;1.20;;;;;;;37.18;30.72;100685.47;5588906;31;34246;-72
2023/09/02 13:14:50;;;;;;;2.92;1.27;;;;;;;35.43;32.92;100678.59;5588578;31;33897;-71
2023/09/02 13:17:53;;;;;;;2.40;1.05;;;;;;;39.42;29.07;100675.13;5588958;31;33861;-71
2023/09/02 13:20:59;;;;;;;3.92;1.20;;;;;;;42.70;24.18;100690.19;5588586;31;33898;-70
2023/09/02 13:24:05;;;;;;;2.83;1.30;;;;;;;44.24;22.41;100695.13;5588564;31;34127;-70
2023/09/02 13:27:08;;;;;;;2.20;1.25;;;;;;;45.85;20.81;100695.53;5588274;31;34293;-70
2023/09/02 13:30:11;;;;;;;1.80;1.10;;;;;;;40.58;25.20;100684.06;5588811;31;33948;-69
2023/09/02 13:33:14;;;;;;;4.05;1.40;;;;;;;35.51;31.56;100679.72;5588063;31;33844;-70
2023/09/02 13:36:17;;;;;;;3.17;1.33;;;;;;;34.14;34.42;100675.53;5588281;31;34900;-69
2023/09/02 13:39:20;;;;;;;3.83;1.37;;;;;;;33.05;36.07;100671.41;5587959;31;33918;-71
2023/09/02 13:42:24;;;;;;;4.07;1.52;;;;;;;36.77;31.64;100672.44;5587757;31;34007;-70
2023/09/02 13:45:28;;;;;;;5.35;1.40;;;;;;;40.30;28.45;100684.19;5587872;31;33901;-70
2023/09/02 13:48:31;;;;;;;6.97;1.33;;;;;;;40.88;28.54;100682.38;5589607;31;34542;-70
2023/09/02 13:51:34;;;;;;;2.03;1.00;;;;;;;35.28;36.17;100673.56;5590545;31;33783;-70
2023/09/02 13:54:37;;;;;;;3.35;1.30;;;;;;;35.43;34.81;100666.75;5590532;31;33812;-70
2023/09/02 13:57:42;;;;;;;2.30;1.20;;;;;;;38.37;31.15;100683.75;5590326;31;34707;-71
2023/09/02 14:00:46;;;;;;;3.28;1.20;;;;;;;38.74;29.67;100681.75;5590638;31;34750;-71
2023/09/02 14:03:49;;;;;;;4.32;1.40;;;;;;;40.37;28.12;100674.06;5590658;31;33899;-70
2023/09/02 14:06:53;;;;;;;2.78;1.20;;;;;;;38.45;30.01;100675.31;5590562;31;34443;-71
2023/09/02 14:09:56;;;;;;;1.83;1.17;;;;;;;35.77;33.46;100669.47;5590558;31;33871;-69
2023/09/02 14:13:08;;;;;;;2.42;1.30;;;;;;;34.06;36.38;100662.56;5590695;31;33776;-70
2023/09/02 14:16:11;;;;;;;4.12;1.20;;;;;;;33.34;38.29;100661.94;5590105;31;34636;-70